Time;durP1;ratioP1;P1;durP2;ratioP2;P2;SDS_P1;SDS_P2;PMS_P1;PMS_P2;Temp;Humidity;BMP_temperature;BMP_pressure;BME280_temperature;BME280_humidity;BME280_pressure;Samples;Min_cycle;Max_cycle;Signal;HPM_P1;HPM_P2
2023/08/16 00:01:18;;;;;;;4.43;2.45;;;25.40;71.40;;;;;;5134309;27;20031;-68
2023/08/16 00:03:43;;;;;;;4.82;2.55;;;25.40;71.40;;;;;;5134773;27;20031;-68
2023/08/16 00:06:10;;;;;;;3.22;2.45;;;25.30;71.50;;;;;;5134520;27;20035;-68
2023/08/16 00:08:36;;;;;;;3.92;2.65;;;25.30;71.50;;;;;;5134226;27;20479;-68
2023/08/16 00:11:03;;;;;;;3.42;2.65;;;25.30;71.60;;;;;;5134612;27;20032;-67
2023/08/16 00:13:28;;;;;;;3.10;2.50;;;25.30;71.70;;;;;;5134130;27;20042;-67
2023/08/16 00:15:54;;;;;;;3.13;2.40;;;25.30;71.80;;;;;;5134323;27;20027;-67
2023/08/16 00:18:19;;;;;;;3.13;2.72;;;25.30;71.90;;;;;;5134069;27;20023;-67
2023/08/16 00:20:45;;;;;;;3.22;2.47;;;25.30;72.20;;;;;;5134348;27;20075;-67
2023/08/16 00:23:11;;;;;;;3.97;2.42;;;25.30;71.90;;;;;;5134684;27;20076;-67
2023/08/16 00:25:37;;;;;;;6.68;2.85;;;25.30;72.00;;;;;;5133880;27;20313;-67
2023/08/16 00:28:02;;;;;;;2.53;2.20;;;25.30;72.00;;;;;;5134503;27;20451;-67
2023/08/16 00:30:28;;;;;;;4.05;2.75;;;25.30;71.90;;;;;;5133766;27;20035;-67
2023/08/16 00:32:54;;;;;;;3.10;2.50;;;25.30;72.00;;;;;;5134227;27;20061;-67
2023/08/16 00:35:19;;;;;;;4.65;2.72;;;25.30;72.00;;;;;;5133826;27;20063;-68
2023/08/16 00:37:45;;;;;;;3.30;2.88;;;25.30;72.00;;;;;;5133981;27;20030;-67
2023/08/16 00:40:11;;;;;;;4.45;2.67;;;25.30;72.10;;;;;;5133934;27;20034;-67
2023/08/16 00:42:36;;;;;;;4.30;2.70;;;25.30;72.10;;;;;;5133678;27;20023;-67
2023/08/16 00:45:03;;;;;;;5.80;2.83;;;25.30;72.10;;;;;;5134347;27;20030;-67
2023/08/16 00:47:28;;;;;;;4.25;2.83;;;25.30;72.60;;;;;;5133571;27;20039;-67
2023/08/16 00:49:54;;;;;;;3.40;3.10;;;25.30;72.10;;;;;;5133559;27;20043;-67
2023/08/16 00:52:20;;;;;;;4.30;2.83;;;25.30;72.30;;;;;;5133593;27;20506;-67
2023/08/16 00:54:46;;;;;;;5.10;3.10;;;25.30;72.60;;;;;;5133750;27;20026;-67
2023/08/16 00:57:13;;;;;;;4.57;3.00;;;25.30;72.80;;;;;;5133811;27;20451;-67
2023/08/16 00:59:38;;;;;;;5.05;2.90;;;25.20;73.20;;;;;;5133404;27;20031;-67
2023/08/16 01:02:04;;;;;;;4.45;3.42;;;25.20;73.20;;;;;;5133456;28;20080;-67
2023/08/16 01:04:30;;;;;;;4.07;3.30;;;25.10;73.60;;;;;;5135316;27;20031;-67
2023/08/16 01:07:00;;;;;;;4.15;2.97;;;25.10;74.00;;;;;;5140328;27;20030;-67
2023/08/16 01:09:26;;;;;;;7.20;2.88;;;25.10;74.10;;;;;;5140112;27;20456;-67
2023/08/16 01:12:07;;;;;;;4.68;3.22;;;25.10;74.10;;;;;;5140303;27;20471;-68
2023/08/16 01:14:55;;;;;;;5.80;3.47;;;25.10;74.10;;;;;;5140164;27;20027;-68
2023/08/16 01:17:23;;;;;;;4.47;3.90;;;25.00;74.20;;;;;;5140590;27;20038;-66
2023/08/16 01:19:50;;;;;;;4.43;3.30;;;25.00;74.40;;;;;;5135980;27;20027;-67
2023/08/16 01:22:42;;;;;;;3.92;3.25;;;25.00;74.50;;;;;;5123066;27;20375;-67
2023/08/16 01:25:34;;;;;;;4.50;3.67;;;25.00;74.60;;;;;;5140503;27;20471;-66
2023/08/16 01:28:01;;;;;;;5.00;3.90;;;25.00;74.60;;;;;;5140323;27;20122;-67
2023/08/16 01:30:28;;;;;;;4.15;3.38;;;25.00;74.60;;;;;;5140028;27;20023;-67
2023/08/16 01:32:54;;;;;;;4.72;3.70;;;25.00;74.70;;;;;;5140174;27;20028;-68
2023/08/16 01:35:20;;;;;;;6.70;3.85;;;25.00;74.50;;;;;;5140725;27;20487;-68
2023/08/16 01:37:46;;;;;;;4.80;3.70;;;25.00;74.50;;;;;;5139696;27;20513;-68
2023/08/16 01:40:13;;;;;;;5.35;4.05;;;25.00;74.60;;;;;;5140361;27;20027;-67
2023/08/16 01:42:46;;;;;;;5.43;4.00;;;24.90;74.60;;;;;;5139589;27;20493;-68
2023/08/16 01:45:16;;;;;;;6.95;3.65;;;24.90;74.80;;;;;;5140428;27;20427;-68
2023/08/16 01:47:42;;;;;;;3.83;3.43;;;24.90;74.80;;;;;;5139690;27;20114;-68
2023/08/16 01:50:08;;;;;;;5.20;3.42;;;24.90;74.80;;;;;;5140252;27;20362;-67
2023/08/16 01:52:35;;;;;;;4.45;3.95;;;24.90;75.50;;;;;;5139758;27;20027;-66
2023/08/16 01:55:01;;;;;;;5.07;4.03;;;24.90;75.00;;;;;;5140136;27;20019;-67
2023/08/16 01:57:26;;;;;;;5.70;4.22;;;24.90;75.00;;;;;;5139438;27;20359;-67
2023/08/16 01:59:52;;;;;;;7.40;4.10;;;24.80;75.00;;;;;;5140037;27;20023;-67
2023/08/16 02:02:17;;;;;;;5.43;4.13;;;24.80;75.00;;;;;;5139944;27;20490;-67
2023/08/16 02:04:43;;;;;;;5.40;4.28;;;24.80;75.20;;;;;;5139629;27;20031;-66
2023/08/16 02:07:09;;;;;;;4.97;4.43;;;24.80;75.10;;;;;;5139746;27;20027;-67
2023/08/16 02:09:34;;;;;;;6.88;4.50;;;24.80;75.20;;;;;;5139416;27;20026;-67
2023/08/16 02:12:00;;;;;;;7.22;5.07;;;24.70;75.40;;;;;;5140122;27;20038;-67
2023/08/16 02:14:25;;;;;;;7.15;4.75;;;24.70;75.70;;;;;;5139993;27;20067;-70
2023/08/16 02:16:51;;;;;;;9.85;4.50;;;24.70;75.70;;;;;;5136700;27;20027;-67
2023/08/16 02:19:16;;;;;;;6.38;4.82;;;24.70;75.70;;;;;;5136852;27;20024;-67
2023/08/16 02:21:42;;;;;;;6.05;4.63;;;24.70;75.80;;;;;;5136313;27;20030;-67
2023/08/16 02:24:08;;;;;;;6.68;4.60;;;24.60;76.30;;;;;;5136357;27;20035;-67
2023/08/16 02:26:34;;;;;;;7.43;4.85;;;24.60;76.20;;;;;;5135980;27;20035;-66
2023/08/16 02:28:59;;;;;;;7.00;5.03;;;24.60;76.20;;;;;;5136564;27;20027;-67
2023/08/16 02:31:25;;;;;;;5.00;4.22;;;24.60;76.80;;;;;;5136615;27;20101;-68
2023/08/16 02:33:50;;;;;;;6.50;4.47;;;24.60;76.50;;;;;;5136149;27;20107;-67
2023/08/16 02:36:16;;;;;;;5.75;4.43;;;24.50;76.70;;;;;;5136159;27;20050;-67
2023/08/16 02:38:42;;;;;;;6.65;5.20;;;24.50;77.10;;;;;;5136023;27;20365;-67
2023/08/16 02:41:07;;;;;;;7.30;5.03;;;24.50;76.80;;;;;;5136005;27;20550;-67
2023/08/16 02:43:33;;;;;;;7.43;5.10;;;24.50;76.90;;;;;;5135477;27;20034;-67
2023/08/16 02:45:59;;;;;;;4.55;4.10;;;24.50;76.90;;;;;;5136306;27;20102;-67
2023/08/16 02:48:25;;;;;;;6.55;5.03;;;24.50;77.50;;;;;;5135832;27;20027;-67
2023/08/16 02:50:50;;;;;;;6.32;4.68;;;24.50;77.70;;;;;;5135265;27;20566;-66
2023/08/16 02:53:16;;;;;;;9.93;4.82;;;24.40;78.10;;;;;;5136420;27;20054;-66
2023/08/16 02:55:42;;;;;;;8.68;4.80;;;24.40;78.30;;;;;;5135640;27;20019;-66
2023/08/16 02:58:08;;;;;;;6.05;4.95;;;24.50;78.10;;;;;;5135920;27;20079;-66
2023/08/16 03:00:33;;;;;;;6.68;4.88;;;24.40;78.20;;;;;;5135726;27;20027;-67
2023/08/16 03:02:59;;;;;;;12.40;5.00;;;24.40;78.80;;;;;;5135819;27;20028;-66
2023/08/16 03:05:24;;;;;;;9.18;5.47;;;24.30;79.30;;;;;;5136190;27;20421;-66
2023/08/16 03:07:50;;;;;;;6.70;5.13;;;24.30;79.20;;;;;;5135419;27;20094;-66
2023/08/16 03:10:16;;;;;;;7.55;4.63;;;24.30;79.10;;;;;;5135495;27;20035;-66
2023/08/16 03:12:41;;;;;;;5.85;4.80;;;24.30;79.30;;;;;;5135325;27;20431;-67
2023/08/16 03:15:07;;;;;;;6.47;4.00;;;24.30;79.50;;;;;;5136003;27;20027;-67
2023/08/16 03:17:33;;;;;;;4.68;4.10;;;24.20;79.90;;;;;;5132081;27;20020;-66
2023/08/16 03:19:59;;;;;;;5.68;3.65;;;24.20;80.30;;;;;;5114935;28;20028;-66
2023/08/16 03:22:24;;;;;;;4.20;3.22;;;24.20;80.60;;;;;;5114895;28;20070;-67
2023/08/16 03:24:50;;;;;;;5.00;3.63;;;24.20;80.60;;;;;;5114667;28;20332;-67
2023/08/16 03:27:16;;;;;;;6.43;3.92;;;24.10;80.60;;;;;;5114780;28;20024;-67
2023/08/16 03:29:41;;;;;;;6.88;3.67;;;24.10;80.80;;;;;;5114723;28;20368;-66
2023/08/16 03:32:07;;;;;;;5.63;3.78;;;24.10;80.90;;;;;;5114538;28;20046;-68
2023/08/16 03:34:33;;;;;;;7.28;3.92;;;24.10;81.00;;;;;;5114431;28;20028;-68
2023/08/16 03:36:59;;;;;;;4.47;3.22;;;24.10;81.30;;;;;;5114863;28;20033;-67
2023/08/16 03:39:25;;;;;;;7.03;3.78;;;24.10;81.20;;;;;;5114318;28;20532;-67
2023/08/16 03:41:50;;;;;;;7.07;3.80;;;24.10;81.20;;;;;;5114345;28;20027;-67
2023/08/16 03:44:16;;;;;;;5.88;3.70;;;24.00;81.50;;;;;;5114548;28;20123;-67
2023/08/16 03:46:42;;;;;;;5.85;3.53;;;24.10;81.70;;;;;;5113806;28;20035;-67
2023/08/16 03:49:07;;;;;;;5.00;3.53;;;24.00;81.80;;;;;;5114332;28;20043;-67
2023/08/16 03:51:33;;;;;;;9.00;3.95;;;24.00;82.10;;;;;;5114061;28;20031;-68
2023/08/16 03:53:59;;;;;;;6.47;4.75;;;24.00;82.60;;;;;;5114357;28;20074;-67
2023/08/16 03:56:25;;;;;;;6.93;4.00;;;24.00;82.60;;;;;;5114364;28;20027;-67
2023/08/16 03:58:50;;;;;;;6.80;3.20;;;24.00;83.30;;;;;;5113923;28;20055;-67
2023/08/16 04:01:16;;;;;;;5.00;3.05;;;23.90;83.30;;;;;;5113868;28;20460;-67
2023/08/16 04:03:43;;;;;;;6.43;3.17;;;23.90;83.60;;;;;;5113472;28;20027;-68
2023/08/16 04:06:11;;;;;;;6.50;2.70;;;23.90;83.60;;;;;;5114142;28;20032;-67
2023/08/16 04:08:38;;;;;;;5.13;3.20;;;23.90;83.80;;;;;;5113602;28;20034;-68
2023/08/16 04:11:04;;;;;;;5.45;3.40;;;23.90;84.70;;;;;;5114065;28;20031;-67
2023/08/16 04:13:29;;;;;;;5.97;3.40;;;23.90;84.30;;;;;;5113938;28;20027;-67
2023/08/16 04:15:55;;;;;;;6.28;3.35;;;23.90;84.40;;;;;;5095203;28;20028;-67
2023/08/16 04:18:21;;;;;;;8.35;3.30;;;23.90;84.40;;;;;;5095376;28;20038;-67
2023/08/16 04:20:47;;;;;;;6.07;3.50;;;23.90;84.30;;;;;;5112986;28;20035;-67
2023/08/16 04:23:13;;;;;;;7.13;2.90;;;23.90;84.60;;;;;;5113773;28;20032;-67
2023/08/16 04:25:38;;;;;;;4.40;3.28;;;23.90;85.00;;;;;;5113046;28;20081;-67
2023/08/16 04:28:04;;;;;;;6.22;3.42;;;23.90;85.00;;;;;;5113956;28;20023;-67
2023/08/16 04:30:30;;;;;;;7.80;4.03;;;23.90;85.10;;;;;;5113657;28;20027;-67
2023/08/16 04:32:56;;;;;;;6.28;4.15;;;23.90;85.20;;;;;;5112905;28;20119;-67
2023/08/16 04:35:23;;;;;;;6.47;3.67;;;23.90;85.20;;;;;;5113802;28;20023;-67
2023/08/16 04:37:48;;;;;;;6.15;3.28;;;23.90;85.00;;;;;;5113224;28;20066;-67
2023/08/16 04:40:14;;;;;;;4.60;3.38;;;23.90;85.30;;;;;;5094782;28;20059;-68
2023/08/16 04:42:40;;;;;;;4.18;3.28;;;24.00;85.70;;;;;;5113085;28;20119;-68
2023/08/16 04:45:06;;;;;;;6.72;3.22;;;24.00;85.90;;;;;;5113262;28;20110;-67
2023/08/16 04:47:31;;;;;;;4.38;3.22;;;24.00;86.00;;;;;;5124073;27;20022;-67
2023/08/16 04:49:58;;;;;;;5.28;3.42;;;24.00;85.90;;;;;;5133558;27;20379;-67
2023/08/16 04:52:24;;;;;;;5.47;3.15;;;24.10;86.00;;;;;;5133950;27;20019;-68
2023/08/16 04:54:50;;;;;;;5.93;3.58;;;24.10;86.10;;;;;;5133447;27;20033;-67
2023/08/16 04:57:15;;;;;;;7.38;3.97;;;24.10;85.30;;;;;;5133928;27;20016;-67
2023/08/16 04:59:41;;;;;;;5.38;4.78;;;24.20;85.10;;;;;;5133463;27;20131;-68
2023/08/16 05:02:08;;;;;;;7.57;4.50;;;24.20;84.50;;;;;;5133636;27;20027;-67
2023/08/16 05:04:33;;;;;;;6.97;4.35;;;24.20;84.70;;;;;;5133679;28;20023;-68
2023/08/16 05:06:59;;;;;;;6.55;4.15;;;24.20;84.60;;;;;;5133059;28;20076;-68
2023/08/16 05:09:24;;;;;;;8.20;4.32;;;24.30;84.60;;;;;;5133830;28;20026;-68
2023/08/16 05:11:50;;;;;;;9.32;5.38;;;24.30;84.50;;;;;;5133053;28;20027;-67
2023/08/16 05:14:15;;;;;;;5.85;4.60;;;24.30;84.40;;;;;;5134171;28;20050;-67
2023/08/16 05:16:41;;;;;;;6.72;4.03;;;24.30;84.10;;;;;;5133000;28;20382;-67
2023/08/16 05:19:07;;;;;;;7.45;4.57;;;24.40;84.00;;;;;;5133749;28;20023;-66
2023/08/16 05:21:32;;;;;;;7.35;5.43;;;24.40;83.70;;;;;;5133460;28;20023;-66
2023/08/16 05:23:58;;;;;;;9.68;5.22;;;24.40;83.50;;;;;;5129629;28;20027;-67
2023/08/16 05:26:24;;;;;;;8.02;5.15;;;24.50;83.60;;;;;;5133536;28;20375;-67
2023/08/16 05:28:49;;;;;;;6.65;4.85;;;24.50;83.40;;;;;;5133246;28;20451;-66
2023/08/16 05:31:15;;;;;;;6.30;4.95;;;24.60;83.20;;;;;;5133514;28;20038;-67
2023/08/16 05:33:41;;;;;;;8.60;4.38;;;24.60;82.70;;;;;;5133110;28;20453;-67
2023/08/16 05:36:07;;;;;;;6.95;4.70;;;24.70;82.00;;;;;;5133293;28;20027;-67
2023/08/16 05:38:32;;;;;;;7.07;3.97;;;24.70;81.40;;;;;;5133148;28;20468;-67
2023/08/16 05:40:59;;;;;;;6.65;4.70;;;24.80;81.20;;;;;;5132655;28;20042;-67
2023/08/16 05:43:24;;;;;;;7.18;4.13;;;24.90;81.10;;;;;;5133489;28;20027;-67
2023/08/16 05:45:50;;;;;;;8.43;4.40;;;24.90;81.10;;;;;;5133027;28;20092;-67
2023/08/16 05:48:16;;;;;;;6.10;4.10;;;24.90;80.70;;;;;;5133528;28;20097;-66
2023/08/16 05:50:42;;;;;;;6.43;4.00;;;25.00;80.40;;;;;;5132396;27;20104;-65
2023/08/16 05:53:07;;;;;;;5.05;3.58;;;25.00;79.90;;;;;;5136848;27;20090;-67
2023/08/16 05:55:34;;;;;;;4.13;3.70;;;25.10;79.90;;;;;;5137116;27;20047;-67
2023/08/16 05:58:00;;;;;;;5.10;3.92;;;25.10;79.40;;;;;;5136650;27;20034;-67
2023/08/16 06:00:26;;;;;;;6.38;4.38;;;25.20;79.00;;;;;;5136937;27;20034;-68
2023/08/16 06:02:52;;;;;;;6.43;4.07;;;25.20;78.40;;;;;;5118188;27;20031;-68
2023/08/16 06:05:18;;;;;;;6.13;4.35;;;25.30;78.40;;;;;;5136977;27;20471;-68
2023/08/16 06:07:44;;;;;;;6.38;4.07;;;25.40;78.10;;;;;;5136411;27;20028;-68
2023/08/16 06:10:10;;;;;;;5.45;4.10;;;25.50;78.80;;;;;;5136529;27;20110;-68
2023/08/16 06:12:35;;;;;;;4.40;3.88;;;25.50;79.40;;;;;;5136416;27;20309;-68
2023/08/16 06:15:02;;;;;;;6.82;4.28;;;25.60;79.20;;;;;;5117951;27;20034;-68
2023/08/16 06:17:28;;;;;;;5.70;4.30;;;25.70;78.10;;;;;;5136582;27;20026;-66
2023/08/16 06:19:53;;;;;;;6.55;4.50;;;25.70;77.80;;;;;;5136053;27;20023;-67
2023/08/16 06:22:19;;;;;;;8.52;4.63;;;25.80;77.10;;;;;;5136018;27;20070;-68
2023/08/16 06:24:45;;;;;;;5.10;4.60;;;25.80;76.90;;;;;;5136031;27;20027;-68
2023/08/16 06:27:10;;;;;;;5.10;4.55;;;25.80;77.10;;;;;;5136576;27;20027;-68
2023/08/16 06:29:36;;;;;;;6.90;4.43;;;25.80;76.80;;;;;;5136405;27;20068;-68
2023/08/16 06:32:03;;;;;;;7.40;5.00;;;25.90;76.30;;;;;;5136203;27;20452;-68
2023/08/16 06:34:29;;;;;;;6.30;4.35;;;25.90;75.50;;;;;;5136448;27;20055;-67
2023/08/16 06:36:54;;;;;;;8.05;5.07;;;26.10;75.80;;;;;;5136170;27;20023;-67
2023/08/16 06:39:20;;;;;;;5.10;4.40;;;26.20;74.80;;;;;;5136344;27;20083;-68
2023/08/16 06:41:46;;;;;;;6.78;4.88;;;26.30;74.90;;;;;;5135605;27;20395;-68
2023/08/16 06:44:11;;;;;;;5.57;4.65;;;26.60;73.60;;;;;;5135734;27;20031;-67
2023/08/16 06:46:37;;;;;;;6.35;4.82;;;26.80;73.20;;;;;;5135953;27;20019;-68
2023/08/16 06:49:03;;;;;;;8.05;4.55;;;27.00;73.00;;;;;;5135744;27;20507;-67
2023/08/16 06:51:29;;;;;;;8.05;5.30;;;27.20;72.20;;;;;;5136164;27;20037;-67
2023/08/16 06:53:55;;;;;;;7.55;4.93;;;27.40;71.00;;;;;;5135426;27;20043;-68
2023/08/16 06:56:21;;;;;;;6.50;4.80;;;27.60;70.60;;;;;;5135482;27;20463;-69
2023/08/16 06:58:47;;;;;;;5.30;4.32;;;28.00;70.90;;;;;;5135722;27;20066;-68
2023/08/16 07:01:12;;;;;;;4.70;4.20;;;29.00;69.10;;;;;;5135682;27;20039;-68
2023/08/16 07:03:38;;;;;;;4.90;4.40;;;30.20;64.00;;;;;;5134853;27;20059;-67
2023/08/16 07:06:04;;;;;;;9.27;4.20;;;31.40;61.00;;;;;;5135147;27;20023;-67
2023/08/16 07:08:30;;;;;;;9.85;4.20;;;32.40;56.80;;;;;;5135482;27;20023;-67
2023/08/16 07:10:55;;;;;;;5.90;3.90;;;33.20;54.20;;;;;;5135279;27;20058;-67
2023/08/16 07:13:21;;;;;;;6.65;3.88;;;33.70;53.40;;;;;;5135388;27;20479;-69
2023/08/16 07:15:47;;;;;;;6.13;3.05;;;33.70;52.80;;;;;;5126292;27;20121;-67
2023/08/16 07:18:12;;;;;;;5.15;3.15;;;34.70;50.50;;;;;;5115243;28;20402;-68
2023/08/16 07:20:39;;;;;;;6.40;2.78;;;35.50;49.40;;;;;;5114692;28;20035;-68
2023/08/16 07:23:06;;;;;;;3.75;2.70;;;36.30;47.80;;;;;;5114537;28;20024;-69
2023/08/16 07:25:32;;;;;;;7.32;3.00;;;36.80;46.20;;;;;;5114740;28;20031;-69
2023/08/16 07:27:57;;;;;;;4.85;3.22;;;37.30;45.30;;;;;;5114423;28;20149;-68
2023/08/16 07:30:23;;;;;;;7.50;3.15;;;36.90;44.40;;;;;;5114513;28;20032;-68
2023/08/16 07:32:49;;;;;;;6.28;3.15;;;37.10;44.10;;;;;;5114193;28;20035;-70
2023/08/16 07:35:14;;;;;;;6.85;3.05;;;37.60;44.30;;;;;;5114292;28;20030;-68
2023/08/16 07:37:40;;;;;;;6.13;3.20;;;38.40;43.00;;;;;;5114543;28;20030;-68
2023/08/16 07:40:06;;;;;;;6.03;3.13;;;38.90;42.40;;;;;;5114012;28;20117;-68
2023/08/16 07:42:32;;;;;;;6.35;3.20;;;39.50;41.60;;;;;;5114677;28;20063;-68
2023/08/16 07:44:59;;;;;;;3.67;3.17;;;40.20;40.90;;;;;;5113890;28;20495;-68
2023/08/16 07:47:25;;;;;;;6.35;2.97;;;40.50;40.00;;;;;;5114427;28;20054;-68
2023/08/16 07:49:50;;;;;;;3.40;2.70;;;40.90;39.20;;;;;;5113533;28;20085;-69
2023/08/16 07:52:16;;;;;;;3.08;2.83;;;41.10;38.70;;;;;;5114425;28;20043;-68
2023/08/16 07:54:42;;;;;;;4.80;2.78;;;41.50;38.20;;;;;;5114244;28;20162;-68
2023/08/16 07:57:07;;;;;;;4.22;3.05;;;41.80;37.80;;;;;;5113685;28;20460;-67
2023/08/16 07:59:33;;;;;;;3.15;2.45;;;42.00;37.00;;;;;;5114000;28;20042;-66
2023/08/16 08:01:59;;;;;;;7.13;3.17;;;42.20;37.00;;;;;;5113344;28;20042;-68
2023/08/16 08:04:25;;;;;;;6.60;2.78;;;42.50;36.30;;;;;;5114025;28;20498;-67
2023/08/16 08:06:51;;;;;;;4.43;2.85;;;42.60;36.80;;;;;;5113875;28;20023;-68
2023/08/16 08:09:17;;;;;;;3.95;3.03;;;42.70;36.10;;;;;;5113764;28;20460;-68
2023/08/16 08:11:43;;;;;;;7.63;2.60;;;42.90;36.00;;;;;;5113842;28;20174;-66
2023/08/16 08:14:08;;;;;;;4.35;3.30;;;43.10;35.70;;;;;;5112347;28;20115;-68
2023/08/16 08:16:34;;;;;;;4.50;3.28;;;43.10;35.60;;;;;;5113355;28;20464;-67
2023/08/16 08:19:00;;;;;;;5.80;2.90;;;43.10;35.20;;;;;;5113297;28;20031;-67
2023/08/16 08:21:26;;;;;;;5.15;2.90;;;42.60;34.90;;;;;;5113555;28;20028;-67
2023/08/16 08:23:51;;;;;;;5.20;2.95;;;42.30;35.70;;;;;;5113707;28;20544;-67
2023/08/16 08:26:17;;;;;;;5.60;3.17;;;42.50;35.70;;;;;;5113506;28;20035;-67
2023/08/16 08:28:44;;;;;;;4.90;3.30;;;42.20;35.80;;;;;;5113467;28;20186;-68
2023/08/16 08:31:11;;;;;;;6.57;3.38;;;42.00;35.70;;;;;;5112936;28;20076;-68
2023/08/16 08:33:37;;;;;;;3.55;2.70;;;41.40;35.90;;;;;;5113382;28;20035;-68
2023/08/16 08:36:03;;;;;;;6.63;2.83;;;41.00;37.30;;;;;;5113024;28;20027;-68
2023/08/16 08:38:29;;;;;;;3.42;3.00;;;41.20;36.70;;;;;;5113203;28;20099;-67
2023/08/16 08:40:59;;;;;;;5.47;3.30;;;40.50;36.70;;;;;;5109878;27;20032;-68
2023/08/16 08:43:32;;;;;;;8.38;3.08;;;40.50;38.00;;;;;;5134043;27;20478;-68
2023/08/16 08:46:00;;;;;;;5.32;2.95;;;40.20;38.00;;;;;;5133596;27;20015;-67
2023/08/16 08:48:29;;;;;;;3.22;2.92;;;40.10;38.40;;;;;;5133821;27;20393;-68
2023/08/16 08:50:56;;;;;;;3.33;3.03;;;39.80;39.00;;;;;;5133570;27;20055;-68
2023/08/16 08:53:26;;;;;;;5.07;3.33;;;39.60;39.90;;;;;;5133980;27;20038;-67
2023/08/16 08:55:54;;;;;;;3.88;3.40;;;39.50;39.80;;;;;;5133419;27;20023;-67
2023/08/16 08:58:21;;;;;;;5.05;3.10;;;39.40;40.20;;;;;;5133179;27;20481;-68
2023/08/16 09:00:49;;;;;;;8.55;3.40;;;39.10;39.30;;;;;;5133542;27;20062;-67
2023/08/16 09:03:18;;;;;;;9.77;3.42;;;38.70;40.30;;;;;;5133283;27;20064;-67
2023/08/16 09:05:53;;;;;;;7.63;3.63;;;38.50;40.80;;;;;;5133649;28;20467;-67
2023/08/16 09:08:20;;;;;;;4.72;3.28;;;38.40;40.60;;;;;;5117512;28;20036;-67
2023/08/16 09:10:46;;;;;;;4.47;3.30;;;38.30;40.80;;;;;;5112956;28;20035;-67
2023/08/16 09:13:12;;;;;;;4.97;3.70;;;38.30;40.70;;;;;;5112608;28;20477;-68
2023/08/16 09:15:39;;;;;;;5.57;3.45;;;38.10;40.50;;;;;;5112926;28;20030;-67
2023/08/16 09:18:11;;;;;;;5.55;3.55;;;37.80;40.30;;;;;;5112512;28;20077;-67
2023/08/16 09:20:38;;;;;;;5.53;3.60;;;37.30;40.50;;;;;;5114667;28;20431;-68
2023/08/16 09:23:04;;;;;;;6.32;3.60;;;36.90;41.70;;;;;;5133044;28;20027;-68
2023/08/16 09:25:31;;;;;;;3.70;3.38;;;36.80;41.80;;;;;;5134301;27;20023;-67
2023/08/16 09:27:57;;;;;;;4.90;3.72;;;36.60;42.20;;;;;;5137521;27;20031;-68
2023/08/16 09:30:27;;;;;;;4.40;3.67;;;36.50;42.50;;;;;;5137542;27;20075;-67
2023/08/16 09:32:54;;;;;;;4.28;3.60;;;36.40;42.70;;;;;;5137510;27;20474;-67
2023/08/16 09:35:26;;;;;;;4.78;3.67;;;36.00;42.50;;;;;;5137021;27;20031;-66
2023/08/16 09:37:56;;;;;;;6.15;3.78;;;35.90;43.40;;;;;;5137415;27;20030;-67
2023/08/16 09:40:21;;;;;;;5.57;3.58;;;36.00;44.40;;;;;;5136942;27;20099;-66
2023/08/16 09:42:47;;;;;;;6.95;3.65;;;36.00;44.50;;;;;;5137518;27;20069;-67
2023/08/16 09:45:13;;;;;;;7.70;4.00;;;36.00;44.50;;;;;;5136988;27;20034;-68
2023/08/16 09:47:42;;;;;;;7.50;3.38;;;35.80;44.50;;;;;;5137330;27;20107;-68
2023/08/16 09:50:09;;;;;;;6.38;3.53;;;35.70;44.60;;;;;;5136775;27;20047;-68
2023/08/16 09:52:39;;;;;;;4.97;3.38;;;35.80;45.10;;;;;;5137316;27;20033;-66
2023/08/16 09:55:08;;;;;;;8.38;3.88;;;35.80;44.90;;;;;;5136728;27;20034;-67
2023/08/16 09:57:34;;;;;;;13.00;5.20;;;35.70;42.60;;;;;;5136900;27;20030;-66
2023/08/16 10:00:03;;;;;;;6.95;3.67;;;35.70;43.80;;;;;;5136317;27;20034;-67
2023/08/16 10:02:29;;;;;;;7.70;3.63;;;35.70;44.00;;;;;;5118100;27;20475;-67
2023/08/16 10:04:56;;;;;;;3.90;3.50;;;35.70;43.50;;;;;;5136447;27;20406;-67
2023/08/16 10:07:23;;;;;;;9.00;3.50;;;35.60;44.20;;;;;;5136392;27;20070;-66
2023/08/16 10:09:49;;;;;;;4.32;3.90;;;35.50;43.30;;;;;;5136542;27;20027;-67
2023/08/16 10:12:16;;;;;;;6.28;3.92;;;35.50;43.60;;;;;;5135768;27;20058;-67
2023/08/16 10:14:42;;;;;;;4.43;3.05;;;35.50;43.10;;;;;;5136483;27;20097;-66
2023/08/16 10:17:10;;;;;;;4.20;3.33;;;35.50;43.40;;;;;;5135808;27;20035;-67
2023/08/16 10:19:39;;;;;;;6.38;3.55;;;35.50;43.10;;;;;;5136565;27;20071;-67
2023/08/16 10:22:21;;;;;;;6.30;3.55;;;35.50;42.90;;;;;;5136067;27;20034;-67
2023/08/16 10:24:49;;;;;;;4.20;3.42;;;35.40;43.40;;;;;;5136227;27;20547;-66
2023/08/16 10:27:15;;;;;;;5.22;3.53;;;35.50;43.50;;;;;;5135967;27;20111;-67
2023/08/16 10:29:44;;;;;;;5.40;3.75;;;35.50;43.40;;;;;;5136403;27;20065;-66
2023/08/16 10:32:16;;;;;;;4.82;3.22;;;35.40;43.30;;;;;;5135837;27;20035;-66
2023/08/16 10:34:43;;;;;;;4.47;3.17;;;35.30;42.90;;;;;;5136324;27;20386;-67
2023/08/16 10:37:10;;;;;;;5.38;3.40;;;35.30;43.10;;;;;;5134475;27;20031;-67
2023/08/16 10:39:35;;;;;;;7.65;3.75;;;35.30;43.70;;;;;;5136048;27;20023;-67
2023/08/16 10:42:05;;;;;;;4.07;3.53;;;35.20;43.90;;;;;;5136118;27;20031;-67
2023/08/16 10:44:31;;;;;;;5.63;3.40;;;35.00;44.50;;;;;;5135959;27;20019;-67
2023/08/16 10:46:57;;;;;;;8.48;3.72;;;34.90;44.20;;;;;;5136162;27;20110;-67
2023/08/16 10:49:23;;;;;;;8.57;3.78;;;34.90;44.60;;;;;;5135564;27;20138;-68
2023/08/16 10:51:53;;;;;;;8.43;3.70;;;35.00;45.70;;;;;;5136054;27;20084;-67
2023/08/16 10:54:32;;;;;;;6.65;3.85;;;34.90;45.40;;;;;;5135489;27;20080;-68
2023/08/16 10:57:01;;;;;;;7.50;3.80;;;34.80;45.00;;;;;;5135829;27;20449;-68
2023/08/16 10:59:39;;;;;;;9.73;4.13;;;34.50;45.30;;;;;;5135199;27;20032;-66
2023/08/16 11:02:10;;;;;;;6.80;4.13;;;34.60;45.20;;;;;;5135322;27;20092;-68
2023/08/16 11:04:38;;;;;;;6.35;4.07;;;34.40;45.80;;;;;;5136071;27;20027;-68
2023/08/16 11:07:08;;;;;;;6.68;3.35;;;34.50;45.90;;;;;;5117162;27;20034;-69
2023/08/16 11:09:36;;;;;;;5.07;3.65;;;34.60;46.00;;;;;;5115116;28;20031;-66
2023/08/16 11:12:02;;;;;;;7.32;4.18;;;34.50;46.00;;;;;;5114827;28;20106;-66
2023/08/16 11:14:28;;;;;;;6.43;3.92;;;34.40;46.20;;;;;;5114358;28;20119;-66
2023/08/16 11:16:55;;;;;;;6.65;4.00;;;34.40;46.60;;;;;;5114796;28;20055;-66
2023/08/16 11:19:23;;;;;;;9.00;4.35;;;34.40;46.80;;;;;;5114309;28;20035;-66
2023/08/16 11:21:51;;;;;;;9.95;4.18;;;34.50;46.60;;;;;;5114587;28;20039;-67
2023/08/16 11:24:17;;;;;;;6.93;3.90;;;34.50;46.20;;;;;;5095947;28;20028;-67
2023/08/16 11:26:43;;;;;;;4.25;3.70;;;34.40;45.60;;;;;;5131066;27;20372;-68
2023/08/16 11:29:09;;;;;;;13.27;3.58;;;34.30;46.30;;;;;;5134491;27;20038;-68
2023/08/16 11:31:35;;;;;;;6.90;3.42;;;34.30;46.90;;;;;;5135092;27;20034;-67
2023/08/16 11:34:01;;;;;;;7.75;3.30;;;34.30;46.30;;;;;;5134794;27;20031;-67
2023/08/16 11:36:26;;;;;;;5.88;3.50;;;34.20;46.30;;;;;;5134315;27;20399;-67
2023/08/16 11:38:52;;;;;;;5.40;3.55;;;34.10;46.30;;;;;;5135027;27;20028;-68
2023/08/16 11:41:21;;;;;;;7.50;3.63;;;33.90;46.70;;;;;;5134118;27;20035;-68
2023/08/16 11:43:58;;;;;;;9.57;3.22;;;33.70;46.80;;;;;;5134889;27;20054;-67
2023/08/16 11:46:23;;;;;;;6.75;3.35;;;33.70;47.40;;;;;;5134525;27;20026;-67
2023/08/16 11:48:49;;;;;;;8.95;3.40;;;33.70;47.30;;;;;;5134436;27;20019;-67
2023/08/16 11:51:15;;;;;;;5.72;3.53;;;33.60;47.30;;;;;;5134233;27;20038;-67
2023/08/16 11:53:40;;;;;;;4.32;3.50;;;33.60;47.00;;;;;;5134677;27;20023;-67
2023/08/16 11:56:11;;;;;;;5.32;3.00;;;33.60;47.00;;;;;;5134467;27;20482;-67
2023/08/16 11:58:45;;;;;;;8.73;3.72;;;33.60;47.30;;;;;;5134511;27;20056;-67
2023/08/16 12:01:14;;;;;;;5.70;3.38;;;33.70;48.00;;;;;;5133956;27;20043;-67
2023/08/16 12:03:40;;;;;;;5.70;3.65;;;33.80;47.70;;;;;;5134431;27;20027;-66
2023/08/16 12:06:08;;;;;;;6.20;3.10;;;33.80;47.10;;;;;;5134154;27;20027;-66
2023/08/16 12:08:35;;;;;;;5.80;3.10;;;33.80;47.60;;;;;;5134672;27;20051;-67
2023/08/16 12:11:02;;;;;;;5.85;3.63;;;33.80;47.30;;;;;;5134331;27;20157;-66
2023/08/16 12:13:27;;;;;;;4.85;3.03;;;33.80;47.00;;;;;;5133704;27;20032;-66
2023/08/16 12:15:53;;;;;;;5.05;3.00;;;33.80;47.20;;;;;;5134216;27;20098;-66
2023/08/16 12:18:21;;;;;;;11.50;3.63;;;33.80;46.70;;;;;;5133784;27;20028;-66
2023/08/16 12:20:50;;;;;;;6.18;3.50;;;33.80;46.80;;;;;;5134120;27;20030;-67
2023/08/16 12:23:17;;;;;;;9.13;3.47;;;33.70;46.70;;;;;;5133794;27;20051;-67
2023/08/16 12:25:43;;;;;;;4.28;2.90;;;33.60;46.40;;;;;;5134056;27;20031;-67
2023/08/16 12:28:09;;;;;;;8.55;4.03;;;33.60;46.40;;;;;;5133934;27;20051;-67
2023/08/16 12:30:34;;;;;;;4.95;3.28;;;33.50;46.90;;;;;;5133336;27;20119;-67
2023/08/16 12:33:00;;;;;;;8.52;3.20;;;33.40;46.80;;;;;;5134008;27;20023;-67
2023/08/16 12:35:26;;;;;;;7.15;3.20;;;33.40;47.20;;;;;;5133636;27;20063;-66
2023/08/16 12:37:51;;;;;;;5.35;3.15;;;33.30;46.50;;;;;;5133991;27;20022;-66
2023/08/16 12:40:17;;;;;;;5.00;3.58;;;33.20;46.50;;;;;;5133528;27;20027;-66
2023/08/16 12:42:42;;;;;;;3.85;3.03;;;33.10;46.90;;;;;;5133776;27;20031;-65